sensor_id;sensor_type;location;lat;lon;timestamp;P1;durP1;ratioP1;P2;durP2;ratioP2
22543;SDS011;11438;52.044;8.716;2023-04-25T00:00:29;8.55;;;2.95;;
22543;SDS011;11438;52.044;8.716;2023-04-25T00:02:54;7.70;;;3.35;;
22543;SDS011;11438;52.044;8.716;2023-04-25T00:05:25;7.32;;;2.92;;
22543;SDS011;11438;52.044;8.716;2023-04-25T00:07:51;11.25;;;3.35;;
22543;SDS011;11438;52.044;8.716;2023-04-25T00:10:17;10.15;;;3.17;;
22543;SDS011;11438;52.044;8.716;2023-04-25T00:12:43;11.88;;;3.22;;
22543;SDS011;11438;52.044;8.716;2023-04-25T00:15:09;11.95;;;3.10;;
22543;SDS011;11438;52.044;8.716;2023-04-25T00:17:35;9.30;;;2.97;;
22543;SDS011;11438;52.044;8.716;2023-04-25T00:20:03;9.10;;;3.30;;
22543;SDS011;11438;52.044;8.716;2023-04-25T00:22:34;11.20;;;3.38;;
22543;SDS011;11438;52.044;8.716;2023-04-25T00:25:02;8.60;;;2.83;;
22543;SDS011;11438;52.044;8.716;2023-04-25T00:27:29;9.02;;;3.40;;
22543;SDS011;11438;52.044;8.716;2023-04-25T00:29:54;5.55;;;3.10;;
22543;SDS011;11438;52.044;8.716;2023-04-25T00:32:20;10.82;;;3.80;;
22543;SDS011;11438;52.044;8.716;2023-04-25T00:34:45;7.68;;;2.80;;
22543;SDS011;11438;52.044;8.716;2023-04-25T00:37:11;7.78;;;3.65;;
22543;SDS011;11438;52.044;8.716;2023-04-25T00:39:36;8.52;;;3.53;;
22543;SDS011;11438;52.044;8.716;2023-04-25T00:42:02;10.30;;;3.40;;
22543;SDS011;11438;52.044;8.716;2023-04-25T00:44:29;12.85;;;3.80;;
22543;SDS011;11438;52.044;8.716;2023-04-25T00:46:55;7.57;;;3.50;;
22543;SDS011;11438;52.044;8.716;2023-04-25T00:49:21;9.82;;;3.78;;
22543;SDS011;11438;52.044;8.716;2023-04-25T00:51:46;11.13;;;3.47;;
22543;SDS011;11438;52.044;8.716;2023-04-25T00:54:12;12.70;;;4.15;;
22543;SDS011;11438;52.044;8.716;2023-04-25T00:56:39;12.48;;;4.00;;
22543;SDS011;11438;52.044;8.716;2023-04-25T00:59:05;8.95;;;4.03;;
22543;SDS011;11438;52.044;8.716;2023-04-25T01:01:30;12.20;;;3.78;;
22543;SDS011;11438;52.044;8.716;2023-04-25T01:03:58;8.88;;;3.30;;
22543;SDS011;11438;52.044;8.716;2023-04-25T01:06:24;9.20;;;3.65;;
22543;SDS011;11438;52.044;8.716;2023-04-25T01:08:50;10.98;;;3.80;;
22543;SDS011;11438;52.044;8.716;2023-04-25T01:11:16;9.48;;;3.63;;
22543;SDS011;11438;52.044;8.716;2023-04-25T01:13:42;7.82;;;3.13;;
22543;SDS011;11438;52.044;8.716;2023-04-25T01:16:08;10.88;;;3.88;;
22543;SDS011;11438;52.044;8.716;2023-04-25T01:18:34;10.10;;;3.88;;
22543;SDS011;11438;52.044;8.716;2023-04-25T01:21:06;11.20;;;3.58;;
22543;SDS011;11438;52.044;8.716;2023-04-25T01:23:36;8.35;;;3.47;;
22543;SDS011;11438;52.044;8.716;2023-04-25T01:26:03;8.88;;;3.58;;
22543;SDS011;11438;52.044;8.716;2023-04-25T01:28:29;10.75;;;3.75;;
22543;SDS011;11438;52.044;8.716;2023-04-25T01:30:56;9.10;;;4.28;;
22543;SDS011;11438;52.044;8.716;2023-04-25T01:33:22;11.65;;;3.90;;
22543;SDS011;11438;52.044;8.716;2023-04-25T01:35:48;9.07;;;3.60;;
22543;SDS011;11438;52.044;8.716;2023-04-25T01:38:14;9.35;;;3.67;;
22543;SDS011;11438;52.044;8.716;2023-04-25T01:40:40;8.43;;;3.78;;
22543;SDS011;11438;52.044;8.716;2023-04-25T01:43:06;7.32;;;2.92;;
22543;SDS011;11438;52.044;8.716;2023-04-25T01:45:35;6.43;;;2.97;;
22543;SDS011;11438;52.044;8.716;2023-04-25T01:48:04;9.93;;;3.45;;
22543;SDS011;11438;52.044;8.716;2023-04-25T01:50:30;7.60;;;3.63;;
22543;SDS011;11438;52.044;8.716;2023-04-25T01:52:55;7.78;;;3.50;;
22543;SDS011;11438;52.044;8.716;2023-04-25T01:55:21;8.38;;;3.40;;
22543;SDS011;11438;52.044;8.716;2023-04-25T01:57:47;8.25;;;3.75;;
22543;SDS011;11438;52.044;8.716;2023-04-25T02:00:12;8.88;;;3.35;;
22543;SDS011;11438;52.044;8.716;2023-04-25T02:02:38;8.20;;;3.55;;
22543;SDS011;11438;52.044;8.716;2023-04-25T02:05:04;7.78;;;3.45;;
22543;SDS011;11438;52.044;8.716;2023-04-25T02:07:30;6.88;;;3.75;;
22543;SDS011;11438;52.044;8.716;2023-04-25T02:09:56;8.75;;;3.55;;
22543;SDS011;11438;52.044;8.716;2023-04-25T02:12:22;9.65;;;3.67;;
22543;SDS011;11438;52.044;8.716;2023-04-25T02:14:47;6.15;;;3.08;;
22543;SDS011;11438;52.044;8.716;2023-04-25T02:17:13;7.35;;;3.45;;
22543;SDS011;11438;52.044;8.716;2023-04-25T02:19:39;6.97;;;3.00;;
22543;SDS011;11438;52.044;8.716;2023-04-25T02:22:04;6.50;;;2.60;;
22543;SDS011;11438;52.044;8.716;2023-04-25T02:24:30;4.38;;;2.25;;
22543;SDS011;11438;52.044;8.716;2023-04-25T02:26:56;5.60;;;2.65;;
22543;SDS011;11438;52.044;8.716;2023-04-25T02:29:22;4.70;;;2.42;;
22543;SDS011;11438;52.044;8.716;2023-04-25T02:31:48;5.07;;;2.33;;
22543;SDS011;11438;52.044;8.716;2023-04-25T02:34:13;3.65;;;2.00;;
22543;SDS011;11438;52.044;8.716;2023-04-25T02:36:39;5.10;;;2.05;;
22543;SDS011;11438;52.044;8.716;2023-04-25T02:39:04;5.97;;;2.25;;
22543;SDS011;11438;52.044;8.716;2023-04-25T02:41:30;6.25;;;2.28;;
22543;SDS011;11438;52.044;8.716;2023-04-25T02:43:56;5.10;;;1.98;;
22543;SDS011;11438;52.044;8.716;2023-04-25T02:46:21;6.70;;;2.17;;
22543;SDS011;11438;52.044;8.716;2023-04-25T02:48:47;5.15;;;1.85;;
22543;SDS011;11438;52.044;8.716;2023-04-25T02:51:12;6.07;;;2.10;;
22543;SDS011;11438;52.044;8.716;2023-04-25T02:53:38;4.25;;;1.95;;
22543;SDS011;11438;52.044;8.716;2023-04-25T02:56:04;5.43;;;1.67;;
22543;SDS011;11438;52.044;8.716;2023-04-25T02:58:30;5.05;;;1.95;;
22543;SDS011;11438;52.044;8.716;2023-04-25T03:00:55;3.83;;;1.70;;
22543;SDS011;11438;52.044;8.716;2023-04-25T03:03:21;6.47;;;2.05;;
22543;SDS011;11438;52.044;8.716;2023-04-25T03:05:50;5.90;;;2.03;;
22543;SDS011;11438;52.044;8.716;2023-04-25T03:08:16;8.75;;;2.10;;
22543;SDS011;11438;52.044;8.716;2023-04-25T03:10:42;4.50;;;1.80;;
22543;SDS011;11438;52.044;8.716;2023-04-25T03:13:07;6.45;;;2.30;;
22543;SDS011;11438;52.044;8.716;2023-04-25T03:15:34;6.68;;;1.70;;
22543;SDS011;11438;52.044;8.716;2023-04-25T03:18:00;7.70;;;2.17;;
22543;SDS011;11438;52.044;8.716;2023-04-25T03:20:26;5.05;;;2.22;;
22543;SDS011;11438;52.044;8.716;2023-04-25T03:22:52;7.25;;;2.38;;
22543;SDS011;11438;52.044;8.716;2023-04-25T03:25:18;5.95;;;2.20;;
22543;SDS011;11438;52.044;8.716;2023-04-25T03:27:43;6.97;;;2.15;;
22543;SDS011;11438;52.044;8.716;2023-04-25T03:30:09;8.50;;;2.10;;
22543;SDS011;11438;52.044;8.716;2023-04-25T03:32:35;7.43;;;2.50;;
22543;SDS011;11438;52.044;8.716;2023-04-25T03:35:00;7.55;;;2.17;;
22543;SDS011;11438;52.044;8.716;2023-04-25T03:37:26;5.25;;;2.05;;
22543;SDS011;11438;52.044;8.716;2023-04-25T03:39:51;8.63;;;2.30;;
22543;SDS011;11438;52.044;8.716;2023-04-25T03:42:17;7.97;;;2.20;;
22543;SDS011;11438;52.044;8.716;2023-04-25T03:44:42;11.55;;;2.53;;
22543;SDS011;11438;52.044;8.716;2023-04-25T03:47:08;7.38;;;2.25;;
22543;SDS011;11438;52.044;8.716;2023-04-25T03:49:34;11.88;;;2.60;;
22543;SDS011;11438;52.044;8.716;2023-04-25T03:52:00;12.57;;;2.67;;
22543;SDS011;11438;52.044;8.716;2023-04-25T03:54:26;11.15;;;2.50;;
22543;SDS011;11438;52.044;8.716;2023-04-25T03:56:52;9.35;;;2.80;;
22543;SDS011;11438;52.044;8.716;2023-04-25T03:59:17;13.00;;;2.70;;
22543;SDS011;11438;52.044;8.716;2023-04-25T04:01:43;13.45;;;2.55;;
22543;SDS011;11438;52.044;8.716;2023-04-25T04:04:08;9.80;;;2.50;;
22543;SDS011;11438;52.044;8.716;2023-04-25T04:06:34;8.93;;;2.28;;
22543;SDS011;11438;52.044;8.716;2023-04-25T04:08:59;9.80;;;2.20;;
22543;SDS011;11438;52.044;8.716;2023-04-25T04:11:25;11.07;;;2.50;;
22543;SDS011;11438;52.044;8.716;2023-04-25T04:13:51;8.80;;;2.40;;
22543;SDS011;11438;52.044;8.716;2023-04-25T04:16:16;10.43;;;2.60;;
22543;SDS011;11438;52.044;8.716;2023-04-25T04:18:41;11.50;;;2.80;;
22543;SDS011;11438;52.044;8.716;2023-04-25T04:21:07;11.70;;;2.92;;
22543;SDS011;11438;52.044;8.716;2023-04-25T04:23:32;13.00;;;2.95;;
22543;SDS011;11438;52.044;8.716;2023-04-25T04:25:58;10.30;;;2.45;;
22543;SDS011;11438;52.044;8.716;2023-04-25T04:28:24;10.88;;;2.78;;
22543;SDS011;11438;52.044;8.716;2023-04-25T04:30:51;9.27;;;2.60;;
22543;SDS011;11438;52.044;8.716;2023-04-25T04:33:17;13.02;;;2.88;;
22543;SDS011;11438;52.044;8.716;2023-04-25T04:35:46;11.50;;;2.78;;
22543;SDS011;11438;52.044;8.716;2023-04-25T04:38:12;12.35;;;2.05;;
22543;SDS011;11438;52.044;8.716;2023-04-25T04:40:40;8.02;;;2.20;;
22543;SDS011;11438;52.044;8.716;2023-04-25T04:43:07;10.40;;;2.88;;
22543;SDS011;11438;52.044;8.716;2023-04-25T04:45:35;8.05;;;2.42;;
22543;SDS011;11438;52.044;8.716;2023-04-25T04:48:03;10.10;;;2.50;;
22543;SDS011;11438;52.044;8.716;2023-04-25T04:50:30;10.88;;;2.28;;
22543;SDS011;11438;52.044;8.716;2023-04-25T04:52:57;8.85;;;2.60;;
22543;SDS011;11438;52.044;8.716;2023-04-25T04:55:23;13.02;;;2.63;;
22543;SDS011;11438;52.044;8.716;2023-04-25T04:57:48;10.00;;;2.67;;
22543;SDS011;11438;52.044;8.716;2023-04-25T05:00:14;11.40;;;2.80;;
22543;SDS011;11438;52.044;8.716;2023-04-25T05:02:40;7.03;;;2.25;;
22543;SDS011;11438;52.044;8.716;2023-04-25T05:05:06;14.15;;;2.83;;
22543;SDS011;11438;52.044;8.716;2023-04-25T05:07:32;7.68;;;2.42;;
22543;SDS011;11438;52.044;8.716;2023-04-25T05:09:58;13.60;;;2.75;;
22543;SDS011;11438;52.044;8.716;2023-04-25T05:12:24;10.65;;;2.42;;
22543;SDS011;11438;52.044;8.716;2023-04-25T05:14:49;8.07;;;2.63;;
22543;SDS011;11438;52.044;8.716;2023-04-25T05:17:15;10.73;;;2.45;;
22543;SDS011;11438;52.044;8.716;2023-04-25T05:19:40;11.73;;;2.97;;
22543;SDS011;11438;52.044;8.716;2023-04-25T05:22:06;12.63;;;2.70;;
22543;SDS011;11438;52.044;8.716;2023-04-25T05:24:31;10.88;;;2.88;;
22543;SDS011;11438;52.044;8.716;2023-04-25T05:26:57;13.02;;;2.70;;
22543;SDS011;11438;52.044;8.716;2023-04-25T05:29:22;12.20;;;3.20;;
22543;SDS011;11438;52.044;8.716;2023-04-25T05:31:48;12.65;;;2.95;;
22543;SDS011;11438;52.044;8.716;2023-04-25T05:34:13;11.15;;;3.47;;
22543;SDS011;11438;52.044;8.716;2023-04-25T05:36:40;10.68;;;2.45;;
22543;SDS011;11438;52.044;8.716;2023-04-25T05:39:05;12.40;;;3.15;;
22543;SDS011;11438;52.044;8.716;2023-04-25T05:41:31;11.70;;;3.25;;
22543;SDS011;11438;52.044;8.716;2023-04-25T05:43:56;15.20;;;2.97;;
22543;SDS011;11438;52.044;8.716;2023-04-25T05:46:22;9.18;;;3.15;;
22543;SDS011;11438;52.044;8.716;2023-04-25T05:48:47;10.63;;;3.38;;
22543;SDS011;11438;52.044;8.716;2023-04-25T05:51:13;9.30;;;3.13;;
22543;SDS011;11438;52.044;8.716;2023-04-25T05:53:38;13.07;;;2.80;;
22543;SDS011;11438;52.044;8.716;2023-04-25T05:56:04;8.02;;;2.45;;
22543;SDS011;11438;52.044;8.716;2023-04-25T05:58:30;13.05;;;3.10;;
22543;SDS011;11438;52.044;8.716;2023-04-25T06:00:55;10.68;;;2.55;;
22543;SDS011;11438;52.044;8.716;2023-04-25T06:03:21;15.05;;;2.95;;
22543;SDS011;11438;52.044;8.716;2023-04-25T06:05:46;11.55;;;3.28;;
22543;SDS011;11438;52.044;8.716;2023-04-25T06:08:12;15.38;;;2.95;;
22543;SDS011;11438;52.044;8.716;2023-04-25T06:10:37;11.82;;;3.08;;
22543;SDS011;11438;52.044;8.716;2023-04-25T06:13:04;15.40;;;2.55;;
22543;SDS011;11438;52.044;8.716;2023-04-25T06:15:29;10.32;;;3.08;;
22543;SDS011;11438;52.044;8.716;2023-04-25T06:17:57;10.98;;;2.90;;
22543;SDS011;11438;52.044;8.716;2023-04-25T06:20:23;10.23;;;2.42;;
22543;SDS011;11438;52.044;8.716;2023-04-25T06:22:49;9.88;;;2.58;;
22543;SDS011;11438;52.044;8.716;2023-04-25T06:25:16;9.00;;;2.80;;
22543;SDS011;11438;52.044;8.716;2023-04-25T06:27:42;7.22;;;2.78;;
22543;SDS011;11438;52.044;8.716;2023-04-25T06:30:07;8.30;;;2.35;;
22543;SDS011;11438;52.044;8.716;2023-04-25T06:32:33;13.15;;;2.78;;
22543;SDS011;11438;52.044;8.716;2023-04-25T06:34:59;9.43;;;2.10;;
22543;SDS011;11438;52.044;8.716;2023-04-25T06:37:25;9.68;;;2.65;;
22543;SDS011;11438;52.044;8.716;2023-04-25T06:39:50;8.63;;;2.03;;
22543;SDS011;11438;52.044;8.716;2023-04-25T06:42:16;10.15;;;2.60;;
22543;SDS011;11438;52.044;8.716;2023-04-25T06:44:41;10.65;;;2.67;;
22543;SDS011;11438;52.044;8.716;2023-04-25T06:47:07;10.40;;;2.28;;
22543;SDS011;11438;52.044;8.716;2023-04-25T06:49:32;15.27;;;2.78;;
22543;SDS011;11438;52.044;8.716;2023-04-25T06:51:58;7.13;;;1.80;;
22543;SDS011;11438;52.044;8.716;2023-04-25T06:54:24;10.15;;;2.63;;
22543;SDS011;11438;52.044;8.716;2023-04-25T06:56:52;11.32;;;3.05;;
22543;SDS011;11438;52.044;8.716;2023-04-25T06:59:17;12.63;;;2.42;;
22543;SDS011;11438;52.044;8.716;2023-04-25T07:01:43;7.10;;;1.75;;
22543;SDS011;11438;52.044;8.716;2023-04-25T07:04:08;8.32;;;2.60;;
22543;SDS011;11438;52.044;8.716;2023-04-25T07:06:34;13.25;;;2.63;;
22543;SDS011;11438;52.044;8.716;2023-04-25T07:09:03;7.55;;;1.92;;
22543;SDS011;11438;52.044;8.716;2023-04-25T07:11:29;10.20;;;2.95;;
22543;SDS011;11438;52.044;8.716;2023-04-25T07:13:55;6.88;;;2.08;;
22543;SDS011;11438;52.044;8.716;2023-04-25T07:16:20;6.75;;;2.20;;
22543;SDS011;11438;52.044;8.716;2023-04-25T07:18:46;8.35;;;1.83;;
22543;SDS011;11438;52.044;8.716;2023-04-25T07:21:11;12.77;;;2.60;;
22543;SDS011;11438;52.044;8.716;2023-04-25T07:23:37;9.00;;;2.35;;
22543;SDS011;11438;52.044;8.716;2023-04-25T07:26:05;8.43;;;2.08;;
22543;SDS011;11438;52.044;8.716;2023-04-25T07:28:31;10.32;;;2.05;;
22543;SDS011;11438;52.044;8.716;2023-04-25T07:30:56;12.35;;;1.77;;
22543;SDS011;11438;52.044;8.716;2023-04-25T07:33:23;9.82;;;2.40;;
22543;SDS011;11438;52.044;8.716;2023-04-25T07:35:48;9.60;;;2.45;;
22543;SDS011;11438;52.044;8.716;2023-04-25T07:38:14;10.18;;;1.92;;
22543;SDS011;11438;52.044;8.716;2023-04-25T07:40:39;7.03;;;2.08;;
22543;SDS011;11438;52.044;8.716;2023-04-25T07:43:05;9.93;;;2.00;;
22543;SDS011;11438;52.044;8.716;2023-04-25T07:45:30;5.57;;;2.00;;
22543;SDS011;11438;52.044;8.716;2023-04-25T07:47:56;12.38;;;2.20;;
22543;SDS011;11438;52.044;8.716;2023-04-25T07:50:21;8.10;;;2.30;;
22543;SDS011;11438;52.044;8.716;2023-04-25T07:52:47;8.02;;;1.90;;
22543;SDS011;11438;52.044;8.716;2023-04-25T07:55:12;8.23;;;1.70;;
22543;SDS011;11438;52.044;8.716;2023-04-25T07:57:38;10.50;;;1.85;;
22543;SDS011;11438;52.044;8.716;2023-04-25T08:00:04;6.75;;;1.88;;
22543;SDS011;11438;52.044;8.716;2023-04-25T08:02:34;7.07;;;1.92;;
22543;SDS011;11438;52.044;8.716;2023-04-25T08:05:00;16.00;;;1.90;;
22543;SDS011;11438;52.044;8.716;2023-04-25T08:07:25;10.70;;;2.17;;
22543;SDS011;11438;52.044;8.716;2023-04-25T08:09:51;7.65;;;1.60;;
22543;SDS011;11438;52.044;8.716;2023-04-25T08:12:17;12.10;;;2.20;;
22543;SDS011;11438;52.044;8.716;2023-04-25T08:14:42;9.40;;;1.80;;
22543;SDS011;11438;52.044;8.716;2023-04-25T08:17:09;12.95;;;1.98;;
22543;SDS011;11438;52.044;8.716;2023-04-25T08:19:34;12.05;;;2.10;;
22543;SDS011;11438;52.044;8.716;2023-04-25T08:22:00;7.90;;;1.50;;
22543;SDS011;11438;52.044;8.716;2023-04-25T08:24:25;6.95;;;2.00;;
22543;SDS011;11438;52.044;8.716;2023-04-25T08:26:51;6.70;;;1.65;;
22543;SDS011;11438;52.044;8.716;2023-04-25T08:29:17;8.15;;;2.10;;
22543;SDS011;11438;52.044;8.716;2023-04-25T08:31:42;7.25;;;1.77;;
22543;SDS011;11438;52.044;8.716;2023-04-25T08:34:08;10.20;;;2.08;;
22543;SDS011;11438;52.044;8.716;2023-04-25T08:36:34;7.93;;;2.17;;
22543;SDS011;11438;52.044;8.716;2023-04-25T08:39:00;5.90;;;1.63;;
22543;SDS011;11438;52.044;8.716;2023-04-25T08:41:25;6.10;;;1.70;;
22543;SDS011;11438;52.044;8.716;2023-04-25T08:43:52;8.00;;;1.83;;
22543;SDS011;11438;52.044;8.716;2023-04-25T08:46:20;8.43;;;1.85;;
22543;SDS011;11438;52.044;8.716;2023-04-25T08:48:48;7.25;;;1.73;;
22543;SDS011;11438;52.044;8.716;2023-04-25T08:51:23;6.70;;;1.70;;
22543;SDS011;11438;52.044;8.716;2023-04-25T08:53:51;7.32;;;2.03;;
22543;SDS011;11438;52.044;8.716;2023-04-25T08:56:17;4.68;;;1.38;;
22543;SDS011;11438;52.044;8.716;2023-04-25T08:58:45;9.38;;;1.95;;
22543;SDS011;11438;52.044;8.716;2023-04-25T09:01:12;10.15;;;2.08;;
22543;SDS011;11438;52.044;8.716;2023-04-25T09:03:38;7.68;;;1.63;;
22543;SDS011;11438;52.044;8.716;2023-04-25T09:06:03;7.32;;;1.60;;
22543;SDS011;11438;52.044;8.716;2023-04-25T09:08:30;6.80;;;2.08;;
22543;SDS011;11438;52.044;8.716;2023-04-25T09:10:55;7.50;;;1.60;;
22543;SDS011;11438;52.044;8.716;2023-04-25T09:13:25;8.18;;;1.67;;
22543;SDS011;11438;52.044;8.716;2023-04-25T09:15:55;4.50;;;1.70;;
22543;SDS011;11438;52.044;8.716;2023-04-25T09:18:22;7.72;;;1.90;;
22543;SDS011;11438;52.044;8.716;2023-04-25T09:20:49;7.45;;;1.80;;
22543;SDS011;11438;52.044;8.716;2023-04-25T09:23:14;6.40;;;1.63;;
22543;SDS011;11438;52.044;8.716;2023-04-25T09:25:40;7.25;;;1.65;;
22543;SDS011;11438;52.044;8.716;2023-04-25T09:28:08;4.88;;;1.38;;
22543;SDS011;11438;52.044;8.716;2023-04-25T09:30:34;7.20;;;1.75;;
22543;SDS011;11438;52.044;8.716;2023-04-25T09:33:07;9.25;;;2.05;;
22543;SDS011;11438;52.044;8.716;2023-04-25T09:35:40;6.80;;;1.88;;
22543;SDS011;11438;52.044;8.716;2023-04-25T09:38:10;5.53;;;1.58;;
22543;SDS011;11438;52.044;8.716;2023-04-25T09:40:41;5.78;;;1.40;;
22543;SDS011;11438;52.044;8.716;2023-04-25T09:43:18;5.97;;;1.23;;
22543;SDS011;11438;52.044;8.716;2023-04-25T09:45:44;6.03;;;1.38;;
22543;SDS011;11438;52.044;8.716;2023-04-25T09:48:10;3.78;;;1.50;;
22543;SDS011;11438;52.044;8.716;2023-04-25T09:50:37;6.38;;;1.92;;
22543;SDS011;11438;52.044;8.716;2023-04-25T09:53:05;5.15;;;1.52;;
22543;SDS011;11438;52.044;8.716;2023-04-25T09:55:32;5.40;;;1.45;;
22543;SDS011;11438;52.044;8.716;2023-04-25T09:58:00;8.30;;;1.58;;
22543;SDS011;11438;52.044;8.716;2023-04-25T10:00:32;7.10;;;1.83;;
22543;SDS011;11438;52.044;8.716;2023-04-25T10:03:00;6.82;;;1.40;;
22543;SDS011;11438;52.044;8.716;2023-04-25T10:05:29;5.28;;;1.10;;
22543;SDS011;11438;52.044;8.716;2023-04-25T10:07:57;4.68;;;1.40;;
22543;SDS011;11438;52.044;8.716;2023-04-25T10:10:25;5.07;;;1.60;;
22543;SDS011;11438;52.044;8.716;2023-04-25T10:12:53;2.92;;;1.10;;
22543;SDS011;11438;52.044;8.716;2023-04-25T10:15:19;4.20;;;1.15;;
22543;SDS011;11438;52.044;8.716;2023-04-25T10:17:45;5.63;;;1.25;;
22543;SDS011;11438;52.044;8.716;2023-04-25T10:20:12;2.65;;;0.95;;
22543;SDS011;11438;52.044;8.716;2023-04-25T10:22:41;3.70;;;1.10;;
22543;SDS011;11438;52.044;8.716;2023-04-25T10:25:09;5.18;;;1.10;;
22543;SDS011;11438;52.044;8.716;2023-04-25T10:27:36;2.75;;;0.93;;
22543;SDS011;11438;52.044;8.716;2023-04-25T10:32:39;4.88;;;1.23;;
22543;SDS011;11438;52.044;8.716;2023-04-25T10:35:10;6.80;;;1.10;;
22543;SDS011;11438;52.044;8.716;2023-04-25T10:37:36;5.32;;;1.20;;
22543;SDS011;11438;52.044;8.716;2023-04-25T10:40:09;3.88;;;1.00;;
22543;SDS011;11438;52.044;8.716;2023-04-25T10:42:35;5.45;;;1.15;;
22543;SDS011;11438;52.044;8.716;2023-04-25T10:45:01;3.33;;;1.17;;
22543;SDS011;11438;52.044;8.716;2023-04-25T10:47:36;5.22;;;1.23;;
22543;SDS011;11438;52.044;8.716;2023-04-25T10:50:08;5.15;;;2.00;;
22543;SDS011;11438;52.044;8.716;2023-04-25T10:52:34;3.67;;;1.00;;
22543;SDS011;11438;52.044;8.716;2023-04-25T10:54:59;4.90;;;1.65;;
22543;SDS011;11438;52.044;8.716;2023-04-25T10:57:29;5.38;;;1.08;;
22543;SDS011;11438;52.044;8.716;2023-04-25T10:59:59;3.40;;;1.13;;
22543;SDS011;11438;52.044;8.716;2023-04-25T11:02:26;5.03;;;1.15;;
22543;SDS011;11438;52.044;8.716;2023-04-25T11:04:55;3.05;;;0.95;;
22543;SDS011;11438;52.044;8.716;2023-04-25T11:07:23;4.30;;;1.02;;
22543;SDS011;11438;52.044;8.716;2023-04-25T11:09:57;4.20;;;1.17;;
22543;SDS011;11438;52.044;8.716;2023-04-25T11:12:25;6.10;;;1.17;;
22543;SDS011;11438;52.044;8.716;2023-04-25T11:14:57;5.43;;;1.40;;
22543;SDS011;11438;52.044;8.716;2023-04-25T11:17:27;3.88;;;1.40;;
22543;SDS011;11438;52.044;8.716;2023-04-25T11:19:54;3.50;;;0.98;;
22543;SDS011;11438;52.044;8.716;2023-04-25T11:22:21;5.80;;;1.30;;
22543;SDS011;11438;52.044;8.716;2023-04-25T11:24:47;4.03;;;1.08;;
22543;SDS011;11438;52.044;8.716;2023-04-25T11:27:12;4.93;;;1.05;;
22543;SDS011;11438;52.044;8.716;2023-04-25T11:29:39;4.65;;;1.33;;
22543;SDS011;11438;52.044;8.716;2023-04-25T11:32:05;6.72;;;1.10;;
22543;SDS011;11438;52.044;8.716;2023-04-25T11:34:31;5.78;;;1.35;;
22543;SDS011;11438;52.044;8.716;2023-04-25T11:37:00;3.22;;;1.15;;
22543;SDS011;11438;52.044;8.716;2023-04-25T11:39:26;3.30;;;1.17;;
22543;SDS011;11438;52.044;8.716;2023-04-25T11:41:53;5.85;;;1.27;;
22543;SDS011;11438;52.044;8.716;2023-04-25T11:44:19;4.68;;;0.98;;
22543;SDS011;11438;52.044;8.716;2023-04-25T11:46:45;6.03;;;1.40;;
22543;SDS011;11438;52.044;8.716;2023-04-25T11:49:12;5.10;;;1.27;;
22543;SDS011;11438;52.044;8.716;2023-04-25T11:51:42;6.53;;;1.40;;
22543;SDS011;11438;52.044;8.716;2023-04-25T11:54:09;5.15;;;1.38;;
22543;SDS011;11438;52.044;8.716;2023-04-25T11:56:36;3.78;;;1.00;;
22543;SDS011;11438;52.044;8.716;2023-04-25T11:59:03;3.08;;;1.10;;
22543;SDS011;11438;52.044;8.716;2023-04-25T12:01:31;5.32;;;1.00;;
22543;SDS011;11438;52.044;8.716;2023-04-25T12:03:58;2.60;;;1.10;;
22543;SDS011;11438;52.044;8.716;2023-04-25T12:06:36;4.65;;;1.00;;
22543;SDS011;11438;52.044;8.716;2023-04-25T12:09:06;2.35;;;0.93;;
22543;SDS011;11438;52.044;8.716;2023-04-25T12:11:52;4.80;;;1.38;;
22543;SDS011;11438;52.044;8.716;2023-04-25T12:14:23;3.90;;;1.27;;
22543;SDS011;11438;52.044;8.716;2023-04-25T12:16:51;6.43;;;1.40;;
22543;SDS011;11438;52.044;8.716;2023-04-25T12:19:18;4.63;;;1.30;;
22543;SDS011;11438;52.044;8.716;2023-04-25T12:21:45;4.00;;;1.00;;
22543;SDS011;11438;52.044;8.716;2023-04-25T12:24:22;7.15;;;1.17;;
22543;SDS011;11438;52.044;8.716;2023-04-25T12:26:51;5.32;;;1.27;;
22543;SDS011;11438;52.044;8.716;2023-04-25T12:29:25;3.90;;;1.10;;
22543;SDS011;11438;52.044;8.716;2023-04-25T12:31:52;4.45;;;1.10;;
22543;SDS011;11438;52.044;8.716;2023-04-25T12:34:19;4.45;;;1.25;;
22543;SDS011;11438;52.044;8.716;2023-04-25T12:36:46;4.68;;;1.35;;
22543;SDS011;11438;52.044;8.716;2023-04-25T12:39:16;5.90;;;1.27;;
22543;SDS011;11438;52.044;8.716;2023-04-25T12:41:46;5.57;;;1.42;;
22543;SDS011;11438;52.044;8.716;2023-04-25T12:44:12;5.38;;;1.23;;
22543;SDS011;11438;52.044;8.716;2023-04-25T12:46:39;5.10;;;1.13;;
22543;SDS011;11438;52.044;8.716;2023-04-25T12:49:06;4.13;;;0.90;;
22543;SDS011;11438;52.044;8.716;2023-04-25T12:51:33;3.97;;;1.20;;
22543;SDS011;11438;52.044;8.716;2023-04-25T12:53:59;3.92;;;1.25;;
22543;SDS011;11438;52.044;8.716;2023-04-25T12:56:25;4.72;;;1.20;;
22543;SDS011;11438;52.044;8.716;2023-04-25T12:58:52;3.28;;;1.17;;
22543;SDS011;11438;52.044;8.716;2023-04-25T13:01:18;6.80;;;1.70;;
22543;SDS011;11438;52.044;8.716;2023-04-25T13:03:44;2.97;;;1.20;;
22543;SDS011;11438;52.044;8.716;2023-04-25T13:06:09;4.55;;;1.40;;
22543;SDS011;11438;52.044;8.716;2023-04-25T13:08:35;2.63;;;1.02;;
22543;SDS011;11438;52.044;8.716;2023-04-25T13:11:03;5.53;;;1.17;;
22543;SDS011;11438;52.044;8.716;2023-04-25T13:13:29;2.28;;;0.90;;
22543;SDS011;11438;52.044;8.716;2023-04-25T13:15:55;5.05;;;1.13;;
22543;SDS011;11438;52.044;8.716;2023-04-25T13:18:21;2.42;;;1.00;;
22543;SDS011;11438;52.044;8.716;2023-04-25T13:20:51;3.17;;;0.95;;
22543;SDS011;11438;52.044;8.716;2023-04-25T13:23:19;4.40;;;1.00;;
22543;SDS011;11438;52.044;8.716;2023-04-25T13:25:45;4.15;;;1.40;;
22543;SDS011;11438;52.044;8.716;2023-04-25T13:28:11;2.63;;;0.90;;
22543;SDS011;11438;52.044;8.716;2023-04-25T13:30:37;4.53;;;1.15;;
22543;SDS011;11438;52.044;8.716;2023-04-25T13:33:03;5.40;;;1.17;;
22543;SDS011;11438;52.044;8.716;2023-04-25T13:35:29;3.95;;;1.00;;
22543;SDS011;11438;52.044;8.716;2023-04-25T13:37:55;2.70;;;0.90;;
22543;SDS011;11438;52.044;8.716;2023-04-25T13:40:21;3.00;;;0.77;;
22543;SDS011;11438;52.044;8.716;2023-04-25T13:42:47;2.03;;;0.60;;
22543;SDS011;11438;52.044;8.716;2023-04-25T13:45:12;1.88;;;0.70;;
22543;SDS011;11438;52.044;8.716;2023-04-25T13:47:38;2.17;;;0.55;;
22543;SDS011;11438;52.044;8.716;2023-04-25T13:50:04;1.25;;;0.60;;
22543;SDS011;11438;52.044;8.716;2023-04-25T13:52:30;2.53;;;0.60;;
22543;SDS011;11438;52.044;8.716;2023-04-25T13:54:56;2.75;;;0.57;;
22543;SDS011;11438;52.044;8.716;2023-04-25T13:57:22;1.90;;;0.68;;
22543;SDS011;11438;52.044;8.716;2023-04-25T13:59:48;1.75;;;1.08;;
22543;SDS011;11438;52.044;8.716;2023-04-25T14:02:14;2.00;;;1.20;;
22543;SDS011;11438;52.044;8.716;2023-04-25T14:04:40;1.67;;;0.70;;
22543;SDS011;11438;52.044;8.716;2023-04-25T14:07:05;1.33;;;0.50;;
22543;SDS011;11438;52.044;8.716;2023-04-25T14:09:31;2.33;;;0.50;;
22543;SDS011;11438;52.044;8.716;2023-04-25T14:11:56;2.38;;;0.60;;
22543;SDS011;11438;52.044;8.716;2023-04-25T14:14:22;2.78;;;0.73;;
22543;SDS011;11438;52.044;8.716;2023-04-25T14:16:48;2.53;;;0.50;;
22543;SDS011;11438;52.044;8.716;2023-04-25T14:19:15;2.83;;;0.80;;
22543;SDS011;11438;52.044;8.716;2023-04-25T14:21:41;2.20;;;0.82;;
22543;SDS011;11438;52.044;8.716;2023-04-25T14:24:06;2.75;;;0.70;;
22543;SDS011;11438;52.044;8.716;2023-04-25T14:26:33;1.05;;;0.65;;
22543;SDS011;11438;52.044;8.716;2023-04-25T14:29:00;3.90;;;0.90;;
22543;SDS011;11438;52.044;8.716;2023-04-25T14:31:26;1.70;;;0.88;;
22543;SDS011;11438;52.044;8.716;2023-04-25T14:33:52;1.80;;;0.98;;
22543;SDS011;11438;52.044;8.716;2023-04-25T14:36:18;3.85;;;1.00;;
22543;SDS011;11438;52.044;8.716;2023-04-25T14:38:43;2.55;;;1.00;;
22543;SDS011;11438;52.044;8.716;2023-04-25T14:41:09;2.88;;;0.80;;
22543;SDS011;11438;52.044;8.716;2023-04-25T14:43:35;3.97;;;1.10;;